createdAt,value
2023-04-18T00:01:30.349Z,94619.72
2023-04-18T00:03:59.950Z,94622.03
2023-04-18T00:06:27.435Z,94609.34
2023-04-18T00:09:04.549Z,94610.53
2023-04-18T00:11:32.641Z,94607.53
2023-04-18T00:14:05.117Z,94600.97
2023-04-18T00:16:35.880Z,94604.09
2023-04-18T00:19:10.393Z,94599.63
2023-04-18T00:21:39.089Z,94601.94
2023-04-18T00:24:08.522Z,94601.09
2023-04-18T00:26:35.252Z,94593.53
2023-04-18T00:31:44.512Z,94591.25
2023-04-18T00:34:15.256Z,94594.84
2023-04-18T00:36:44.387Z,94589.44
2023-04-18T00:39:16.327Z,94591.72
2023-04-18T00:41:45.276Z,94594.34
2023-04-18T00:44:15.697Z,94597.81
2023-04-18T00:46:45.071Z,94602.75
2023-04-18T00:54:34.984Z,94600.66
2023-04-18T00:57:02.987Z,94602.94
2023-04-18T00:59:31.260Z,94603.25
2023-04-18T01:02:08.297Z,94594.69
2023-04-18T01:07:28.631Z,94596.03
2023-04-18T01:10:08.797Z,94588.94
2023-04-18T01:15:23.304Z,94591.91
2023-04-18T01:20:33.215Z,94584.31
2023-04-18T01:31:33.779Z,94581.69
2023-04-18T01:34:10.961Z,94582.19
2023-04-18T01:36:41.099Z,94584.00
2023-04-18T01:39:11.773Z,94573.44
2023-04-18T01:43:18.650Z,94574.63
2023-04-18T01:44:37.713Z,94569.16
2023-04-18T01:49:49.310Z,94566.72
2023-04-18T01:52:28.270Z,94564.56
2023-04-18T01:54:57.273Z,94563.75
2023-04-18T02:08:37.798Z,94564.41
2023-04-18T02:16:40.003Z,94576.75
2023-04-18T02:21:57.094Z,94562.59
2023-04-18T02:24:35.316Z,94567.38
2023-04-18T02:27:09.148Z,94565.38
2023-04-18T02:29:38.732Z,94562.94
2023-04-18T02:35:01.031Z,94570.34
2023-04-18T02:37:31.762Z,94573.47
2023-04-18T02:40:02.361Z,94564.06
2023-04-18T02:42:32.790Z,94573.13
2023-04-18T02:45:07.860Z,94575.25
2023-04-18T02:50:28.957Z,94565.22
2023-04-18T02:53:04.216Z,94566.88
2023-04-18T02:55:31.949Z,94567.53
2023-04-18T03:06:14.859Z,94562.75
2023-04-18T03:17:00.044Z,94561.25
2023-04-18T03:27:50.878Z,94559.28
2023-04-18T03:38:49.011Z,94557.16
2023-04-18T03:52:43.510Z,94543.47
2023-04-18T03:55:16.173Z,94541.81
2023-04-18T04:03:31.737Z,94559.63
2023-04-18T04:11:22.674Z,94549.72
2023-04-18T04:14:04.473Z,94551.06
2023-04-18T04:16:50.390Z,94554.34
2023-04-18T04:19:28.482Z,94553.38
2023-04-18T04:24:53.199Z,94558.31
2023-04-18T04:30:05.912Z,94566.84
2023-04-18T04:35:18.835Z,94565.72
2023-04-18T04:37:48.771Z,94564.56
2023-04-18T04:45:40.924Z,94566.88
2023-04-18T04:48:13.801Z,94564.88
2023-04-18T04:53:58.056Z,94560.59
2023-04-18T05:21:09.221Z,94557.63
2023-04-18T05:26:24.479Z,94562.09
2023-04-18T05:28:55.627Z,94565.41
2023-04-18T05:31:38.749Z,94566.38
2023-04-18T05:34:10.131Z,94566.38
2023-04-18T05:36:45.798Z,94567.03
2023-04-18T06:07:20.605Z,94583.50
2023-04-18T06:09:47.928Z,94581.81
2023-04-18T06:17:45.705Z,94589.69
2023-04-18T06:20:26.469Z,94592.31
2023-04-18T06:33:55.722Z,94590.53
2023-04-18T06:36:26.464Z,94594.97
2023-04-18T06:41:38.740Z,94586.78
2023-04-18T06:49:35.111Z,94586.88
2023-04-18T06:52:05.084Z,94586.00
2023-04-18T06:54:31.831Z,94587.19
2023-04-18T07:02:40.455Z,94592.31
2023-04-18T07:05:16.152Z,94587.31
2023-04-18T07:07:48.142Z,94583.16
2023-04-18T07:10:17.634Z,94587.47
2023-04-18T07:15:30.297Z,94589.28
2023-04-18T07:23:30.576Z,94595.19
2023-04-18T07:26:03.374Z,94599.28
2023-04-18T07:31:27.033Z,94590.81
2023-04-18T07:34:01.492Z,94591.19
2023-04-18T07:36:37.498Z,94593.91
2023-04-18T07:41:47.303Z,94588.13
2023-04-18T07:44:42.649Z,94598.53
2023-04-18T07:50:00.589Z,94594.25
2023-04-18T07:52:29.893Z,94596.53
2023-04-18T07:54:58.854Z,94599.19
2023-04-18T07:57:34.387Z,94596.72
2023-04-18T08:00:04.643Z,94603.41
2023-04-18T08:08:18.528Z,94604.94
2023-04-18T08:19:02.982Z,94600.63
2023-04-18T08:26:53.838Z,94599.13
2023-04-18T08:32:04.497Z,94598.81
2023-04-18T08:34:33.036Z,94601.47
2023-04-18T08:40:00.336Z,94605.16
2023-04-18T08:56:12.425Z,94605.53
2023-04-18T09:12:51.181Z,94602.06
2023-04-18T09:23:40.750Z,94598.28
2023-04-18T09:31:32.869Z,94595.34
2023-04-18T09:34:03.376Z,94603.53
2023-04-18T09:58:54.235Z,94602.59
2023-04-18T10:06:49.669Z,94604.56
2023-04-18T10:12:39.148Z,94606.47
2023-04-18T10:15:13.217Z,94595.03
2023-04-18T10:18:02.763Z,94607.72
2023-04-18T10:20:43.187Z,94602.19
2023-04-18T10:23:21.274Z,94591.94
2023-04-18T10:28:44.532Z,94609.75
2023-04-18T10:31:15.112Z,94600.56
2023-04-18T10:33:43.863Z,94604.25
2023-04-18T10:36:14.294Z,94601.59
2023-04-18T10:41:43.620Z,94596.53
2023-04-18T10:44:12.472Z,94589.16
2023-04-18T10:46:41.853Z,94592.88
2023-04-18T10:49:09.382Z,94591.41
2023-04-18T10:51:43.212Z,94589.19
2023-04-18T10:54:12.866Z,94588.16
2023-04-18T10:56:48.636Z,94586.53
2023-04-18T11:02:05.878Z,94573.81
2023-04-18T11:10:04.316Z,94576.88
2023-04-18T11:21:04.093Z,94573.81
2023-04-18T11:23:48.910Z,94582.81
2023-04-18T11:29:18.336Z,94571.78
2023-04-18T11:34:26.321Z,94567.69
2023-04-18T11:39:47.833Z,94568.91
2023-04-18T11:50:41.807Z,94561.09
2023-04-18T11:53:10.864Z,94562.94
2023-04-18T12:52:35.543Z,94545.56
2023-04-18T12:57:52.518Z,94549.25
2023-04-18T13:06:01.538Z,94550.44
2023-04-18T13:30:22.006Z,94551.63
2023-04-18T13:35:52.867Z,94553.41
2023-04-18T13:52:05.408Z,94549.59
2023-04-18T14:00:02.118Z,94555.81
2023-04-18T14:36:01.333Z,94545.06
2023-04-18T14:52:23.440Z,94550.41
2023-04-18T15:03:17.105Z,94559.84
2023-04-18T15:14:09.900Z,94551.03
2023-04-18T15:16:47.051Z,94552.91
2023-04-18T15:31:01.835Z,94551.13
2023-04-18T15:33:28.999Z,94567.34
2023-04-18T15:37:05.500Z,94573.63
2023-04-18T15:41:44.612Z,94579.09
2023-04-18T15:47:03.993Z,94572.84
2023-04-18T15:49:30.832Z,94571.81
2023-04-18T15:54:54.926Z,94570.97
2023-04-18T15:57:30.197Z,94561.78
2023-04-18T16:02:46.257Z,94564.44
2023-04-18T16:13:40.090Z,94573.72
2023-04-18T16:30:32.646Z,94570.88
2023-04-18T16:38:43.016Z,94578.97
2023-04-18T16:58:50.003Z,94583.88
2023-04-18T17:01:19.174Z,94581.47
2023-04-18T17:03:47.961Z,94584.75
2023-04-18T17:06:42.317Z,94586.81
2023-04-18T17:10:09.947Z,94589.88
2023-04-18T17:11:57.607Z,94589.94
2023-04-18T17:20:06.369Z,94594.25
2023-04-18T17:22:42.677Z,94597.31
2023-04-18T17:25:13.912Z,94607.53
2023-04-18T17:27:42.699Z,94613.75
2023-04-18T17:30:10.226Z,94609.72
2023-04-18T17:32:39.469Z,94611.78
2023-04-18T17:35:10.749Z,94612.84
2023-04-18T17:37:39.074Z,94624.81
2023-04-18T17:40:09.016Z,94610.09
2023-04-18T17:42:46.417Z,94623.41
2023-04-18T17:45:13.858Z,94620.16
2023-04-18T17:47:42.966Z,94628.75
2023-04-18T17:50:13.935Z,94630.16
2023-04-18T17:52:41.831Z,94629.94
2023-04-18T17:55:10.387Z,94630.34
2023-04-18T17:57:38.987Z,94647.09
2023-04-18T18:00:07.485Z,94645.00
2023-04-18T18:02:36.173Z,94644.56
2023-04-18T18:05:05.417Z,94647.19
2023-04-18T18:07:34.615Z,94650.22
2023-04-18T18:10:02.854Z,94650.56
2023-04-18T18:12:29.455Z,94656.00
2023-04-18T18:14:58.108Z,94659.41
2023-04-18T18:17:27.347Z,94661.81
2023-04-18T18:19:54.249Z,94658.88
2023-04-18T18:22:22.804Z,94659.91
2023-04-18T18:24:49.973Z,94656.41
2023-04-18T18:27:16.993Z,94659.53
2023-04-18T18:29:46.014Z,94664.16
2023-04-18T18:32:13.181Z,94665.75
2023-04-18T18:34:40.775Z,94671.22
2023-04-18T18:37:09.695Z,94684.19
2023-04-18T18:39:37.966Z,94676.72
2023-04-18T18:42:05.556Z,94680.50
2023-04-18T18:44:33.131Z,94675.84
2023-04-18T18:47:01.976Z,94682.16
2023-04-18T18:49:30.310Z,94683.16
2023-04-18T18:51:59.286Z,94682.47
2023-04-18T18:54:26.517Z,94694.81
2023-04-18T18:56:54.169Z,94687.97
2023-04-18T18:59:22.727Z,94694.69
2023-04-18T19:01:51.922Z,94696.88
2023-04-18T19:04:19.991Z,94691.03
2023-04-18T19:06:48.513Z,94688.56
2023-04-18T19:09:16.357Z,94687.31
2023-04-18T19:11:45.461Z,94677.63
2023-04-18T19:14:12.334Z,94688.19
2023-04-18T19:16:39.959Z,94694.38
2023-04-18T19:19:08.506Z,94698.03
2023-04-18T19:21:36.213Z,94695.31
2023-04-18T19:24:03.706Z,94697.13
2023-04-18T19:26:32.363Z,94693.66
2023-04-18T19:29:01.140Z,94699.78
2023-04-18T19:31:28.535Z,94701.44
2023-04-18T19:33:56.173Z,94699.22
2023-04-18T19:36:25.057Z,94704.25
2023-04-18T19:38:52.380Z,94710.28
2023-04-18T19:41:21.257Z,94702.53
2023-04-18T19:43:48.587Z,94701.13
2023-04-18T19:46:16.274Z,94703.09
2023-04-18T19:48:48.266Z,94694.94
2023-04-18T19:51:15.354Z,94706.56
2023-04-18T19:53:42.965Z,94710.03
2023-04-18T19:56:12.143Z,94700.88
2023-04-18T19:58:40.157Z,94702.44
2023-04-18T20:01:11.795Z,94707.72
2023-04-18T20:03:41.423Z,94711.03
2023-04-18T20:06:09.012Z,94706.91
2023-04-18T20:08:37.571Z,94710.03
2023-04-18T20:11:05.123Z,94713.41
2023-04-18T20:13:32.713Z,94715.78
2023-04-18T20:15:59.404Z,94715.59
2023-04-18T20:18:28.213Z,94721.97
2023-04-18T20:20:55.497Z,94728.22
2023-04-18T20:23:23.074Z,94735.34
2023-04-18T20:25:51.918Z,94734.53
2023-04-18T20:28:20.345Z,94735.16
2023-04-18T20:30:48.082Z,94738.72
2023-04-18T20:33:16.894Z,94733.59
2023-04-18T20:35:45.158Z,94732.16
2023-04-18T20:38:14.384Z,94737.91
2023-04-18T20:40:53.224Z,94734.25
2023-04-18T20:43:22.513Z,94736.91
2023-04-18T20:45:50.631Z,94734.59
2023-04-18T20:48:26.168Z,94737.06
2023-04-18T20:50:55.845Z,94739.09
2023-04-18T20:53:23.359Z,94736.97
2023-04-18T20:55:52.240Z,94740.16
2023-04-18T20:58:28.021Z,94742.81
2023-04-18T21:01:35.501Z,94750.16
2023-04-18T21:03:45.024Z,94751.50
2023-04-18T21:06:12.433Z,94749.22
2023-04-18T21:08:41.071Z,94745.19
2023-04-18T21:11:10.048Z,94751.31
2023-04-18T21:13:37.252Z,94754.31
2023-04-18T21:16:06.284Z,94750.53
2023-04-18T21:18:34.450Z,94749.09
2023-04-18T21:21:02.046Z,94755.28
2023-04-18T21:23:29.731Z,94760.59
2023-04-18T21:25:58.774Z,94766.09
2023-04-18T21:28:25.829Z,94768.78
2023-04-18T21:30:54.409Z,94768.13
2023-04-18T21:33:27.493Z,94777.44
2023-04-18T21:35:54.575Z,94772.16
2023-04-18T21:38:23.417Z,94771.69
2023-04-18T21:40:51.831Z,94775.16
2023-04-18T21:43:20.571Z,94775.38
2023-04-18T21:45:48.008Z,94782.19
2023-04-18T21:48:16.569Z,94777.91
2023-04-18T21:50:48.233Z,94779.09
2023-04-18T21:53:15.902Z,94787.38
2023-04-18T21:55:44.508Z,94783.25
2023-04-18T21:58:17.101Z,94782.47
2023-04-18T22:00:46.028Z,94784.81
2023-04-18T22:03:14.455Z,94782.53
2023-04-18T22:05:41.922Z,94781.53
2023-04-18T22:08:11.063Z,94787.00
2023-04-18T22:10:43.248Z,94785.88
2023-04-18T22:13:12.447Z,94787.03
2023-04-18T22:15:42.541Z,94784.91
2023-04-18T22:18:11.364Z,94779.09
2023-04-18T22:20:39.637Z,94780.50
2023-04-18T22:23:08.260Z,94783.31
2023-04-18T22:25:35.873Z,94781.00
2023-04-18T22:28:07.640Z,94786.47
2023-04-18T22:30:36.475Z,94789.75
2023-04-18T22:33:03.706Z,94788.00
2023-04-18T22:35:36.893Z,94782.69
2023-04-18T22:38:03.966Z,94783.38
2023-04-18T22:40:31.458Z,94775.97
2023-04-18T22:42:58.170Z,94780.59
2023-04-18T22:45:27.442Z,94786.22
2023-04-18T22:47:55.408Z,94784.59
2023-04-18T22:50:22.942Z,94790.34
2023-04-18T22:52:51.540Z,94786.41
2023-04-18T22:55:20.122Z,94788.91
2023-04-18T22:57:49.250Z,94787.09
2023-04-18T23:00:16.291Z,94791.22
2023-04-18T23:02:48.344Z,94789.94
2023-04-18T23:05:15.633Z,94792.06
2023-04-18T23:07:43.084Z,94781.50
2023-04-18T23:10:11.733Z,94796.88
2023-04-18T23:12:39.297Z,94792.94
2023-04-18T23:15:07.866Z,94806.00
2023-04-18T23:17:36.523Z,94799.69
2023-04-18T23:20:04.107Z,94804.19
2023-04-18T23:22:32.778Z,94803.16
2023-04-18T23:25:06.295Z,94806.63
2023-04-18T23:27:33.875Z,94804.81
2023-04-18T23:30:03.262Z,94800.03
2023-04-18T23:32:35.214Z,94801.69
2023-04-18T23:35:03.735Z,94802.00
2023-04-18T23:37:32.477Z,94799.88
2023-04-18T23:39:59.906Z,94800.22
2023-04-18T23:42:30.781Z,94805.31
2023-04-18T23:44:59.127Z,94802.34
2023-04-18T23:47:27.758Z,94807.13
2023-04-18T23:49:56.952Z,94796.56
2023-04-18T23:52:24.905Z,94794.59
2023-04-18T23:54:52.518Z,94795.25
2023-04-18T23:57:20.090Z,94802.19
2023-04-18T23:59:49.264Z,94803.00
